sensor_id;sensor_type;location;lat;lon;timestamp;P1;durP1;ratioP1;P2;durP2;ratioP2
69837;SDS011;57135;51.992;4.476;2022-12-07T00:01:25;3.05;;;2.46;;
69837;SDS011;57135;51.992;4.476;2022-12-07T00:03:53;3.20;;;2.40;;
69837;SDS011;57135;51.992;4.476;2022-12-07T00:06:29;2.97;;;2.16;;
69837;SDS011;57135;51.992;4.476;2022-12-07T00:08:54;3.13;;;2.19;;
69837;SDS011;57135;51.992;4.476;2022-12-07T00:11:20;2.95;;;2.03;;
69837;SDS011;57135;51.992;4.476;2022-12-07T00:13:47;3.33;;;2.28;;
69837;SDS011;57135;51.992;4.476;2022-12-07T00:16:21;2.89;;;1.97;;
69837;SDS011;57135;51.992;4.476;2022-12-07T00:18:47;3.23;;;2.17;;
69837;SDS011;57135;51.992;4.476;2022-12-07T00:21:17;3.23;;;2.15;;
69837;SDS011;57135;51.992;4.476;2022-12-07T00:23:45;3.09;;;2.05;;
69837;SDS011;57135;51.992;4.476;2022-12-07T00:26:16;3.48;;;2.29;;
69837;SDS011;57135;51.992;4.476;2022-12-07T00:28:47;3.42;;;2.25;;
69837;SDS011;57135;51.992;4.476;2022-12-07T00:31:17;3.23;;;2.17;;
69837;SDS011;57135;51.992;4.476;2022-12-07T00:33:44;2.94;;;1.98;;
69837;SDS011;57135;51.992;4.476;2022-12-07T00:36:11;3.43;;;2.32;;
69837;SDS011;57135;51.992;4.476;2022-12-07T00:38:39;2.94;;;2.01;;
69837;SDS011;57135;51.992;4.476;2022-12-07T00:41:06;2.91;;;1.95;;
69837;SDS011;57135;51.992;4.476;2022-12-07T00:43:34;3.00;;;1.99;;
69837;SDS011;57135;51.992;4.476;2022-12-07T00:46:00;3.01;;;2.00;;
69837;SDS011;57135;51.992;4.476;2022-12-07T00:48:25;3.19;;;2.10;;
69837;SDS011;57135;51.992;4.476;2022-12-07T00:50:51;3.12;;;2.06;;
69837;SDS011;57135;51.992;4.476;2022-12-07T00:53:16;2.65;;;1.78;;
69837;SDS011;57135;51.992;4.476;2022-12-07T00:55:42;3.28;;;2.26;;
69837;SDS011;57135;51.992;4.476;2022-12-07T00:58:08;2.61;;;1.82;;
69837;SDS011;57135;51.992;4.476;2022-12-07T01:00:38;2.36;;;1.66;;
69837;SDS011;57135;51.992;4.476;2022-12-07T01:03:04;2.46;;;1.77;;
69837;SDS011;57135;51.992;4.476;2022-12-07T01:05:31;2.16;;;1.57;;
69837;SDS011;57135;51.992;4.476;2022-12-07T01:07:56;2.19;;;1.63;;
69837;SDS011;57135;51.992;4.476;2022-12-07T01:10:22;2.27;;;1.68;;
69837;SDS011;57135;51.992;4.476;2022-12-07T01:12:47;2.53;;;1.91;;
69837;SDS011;57135;51.992;4.476;2022-12-07T01:15:13;2.27;;;1.73;;
69837;SDS011;57135;51.992;4.476;2022-12-07T01:17:39;2.09;;;1.58;;
69837;SDS011;57135;51.992;4.476;2022-12-07T01:20:04;1.91;;;1.46;;
69837;SDS011;57135;51.992;4.476;2022-12-07T01:22:30;2.22;;;1.74;;
69837;SDS011;57135;51.992;4.476;2022-12-07T01:24:56;2.09;;;1.67;;
69837;SDS011;57135;51.992;4.476;2022-12-07T01:27:21;2.10;;;1.69;;
69837;SDS011;57135;51.992;4.476;2022-12-07T01:29:46;2.14;;;1.73;;
69837;SDS011;57135;51.992;4.476;2022-12-07T01:32:12;1.82;;;1.48;;
69837;SDS011;57135;51.992;4.476;2022-12-07T01:34:37;1.93;;;1.58;;
69837;SDS011;57135;51.992;4.476;2022-12-07T01:37:03;1.82;;;1.48;;
69837;SDS011;57135;51.992;4.476;2022-12-07T01:39:28;2.04;;;1.63;;
69837;SDS011;57135;51.992;4.476;2022-12-07T01:41:54;2.02;;;1.62;;
69837;SDS011;57135;51.992;4.476;2022-12-07T01:46:46;1.96;;;1.59;;
69837;SDS011;57135;51.992;4.476;2022-12-07T01:49:33;2.50;;;2.01;;
69837;SDS011;57135;51.992;4.476;2022-12-07T01:52:46;2.28;;;1.79;;
69837;SDS011;57135;51.992;4.476;2022-12-07T01:54:49;2.58;;;1.85;;
69837;SDS011;57135;51.992;4.476;2022-12-07T01:57:18;2.84;;;1.92;;
69837;SDS011;57135;51.992;4.476;2022-12-07T01:59:45;3.74;;;2.45;;
69837;SDS011;57135;51.992;4.476;2022-12-07T02:02:32;3.44;;;2.24;;
69837;SDS011;57135;51.992;4.476;2022-12-07T02:05:03;3.27;;;2.09;;
69837;SDS011;57135;51.992;4.476;2022-12-07T02:07:30;3.56;;;2.23;;
69837;SDS011;57135;51.992;4.476;2022-12-07T02:10:11;4.00;;;2.48;;
69837;SDS011;57135;51.992;4.476;2022-12-07T02:12:48;3.46;;;2.14;;
69837;SDS011;57135;51.992;4.476;2022-12-07T02:15:18;2.98;;;1.84;;
69837;SDS011;57135;51.992;4.476;2022-12-07T02:17:49;3.24;;;1.99;;
69837;SDS011;57135;51.992;4.476;2022-12-07T02:20:38;3.72;;;2.29;;
69837;SDS011;57135;51.992;4.476;2022-12-07T02:29:02;3.10;;;1.94;;
69837;SDS011;57135;51.992;4.476;2022-12-07T02:31:42;3.40;;;2.14;;
69837;SDS011;57135;51.992;4.476;2022-12-07T02:34:21;2.84;;;1.81;;
69837;SDS011;57135;51.992;4.476;2022-12-07T02:36:55;3.52;;;2.22;;
69837;SDS011;57135;51.992;4.476;2022-12-07T02:39:44;3.76;;;2.36;;
69837;SDS011;57135;51.992;4.476;2022-12-07T02:42:16;3.79;;;2.39;;
69837;SDS011;57135;51.992;4.476;2022-12-07T02:44:50;3.18;;;2.05;;
69837;SDS011;57135;51.992;4.476;2022-12-07T02:47:17;3.40;;;2.19;;
69837;SDS011;57135;51.992;4.476;2022-12-07T02:49:46;3.39;;;2.18;;
69837;SDS011;57135;51.992;4.476;2022-12-07T02:52:11;3.06;;;1.96;;
69837;SDS011;57135;51.992;4.476;2022-12-07T02:54:37;2.88;;;1.86;;
69837;SDS011;57135;51.992;4.476;2022-12-07T03:10:07;3.25;;;2.16;;
69837;SDS011;57135;51.992;4.476;2022-12-07T03:12:46;3.44;;;2.28;;
69837;SDS011;57135;51.992;4.476;2022-12-07T03:15:40;3.62;;;2.36;;
69837;SDS011;57135;51.992;4.476;2022-12-07T03:18:25;3.59;;;2.36;;
69837;SDS011;57135;51.992;4.476;2022-12-07T03:20:57;3.29;;;2.15;;
69837;SDS011;57135;51.992;4.476;2022-12-07T03:23:27;3.38;;;2.23;;
69837;SDS011;57135;51.992;4.476;2022-12-07T03:25:57;3.49;;;2.26;;
69837;SDS011;57135;51.992;4.476;2022-12-07T03:28:26;3.07;;;2.00;;
69837;SDS011;57135;51.992;4.476;2022-12-07T03:31:01;3.16;;;2.04;;
69837;SDS011;57135;51.992;4.476;2022-12-07T03:33:40;3.60;;;2.27;;
69837;SDS011;57135;51.992;4.476;2022-12-07T03:41:48;4.23;;;2.55;;
69837;SDS011;57135;51.992;4.476;2022-12-07T03:44:15;3.85;;;2.27;;
69837;SDS011;57135;51.992;4.476;2022-12-07T03:46:52;4.30;;;2.54;;
69837;SDS011;57135;51.992;4.476;2022-12-07T03:49:46;4.59;;;2.69;;
69837;SDS011;57135;51.992;4.476;2022-12-07T03:52:33;4.31;;;2.52;;
69837;SDS011;57135;51.992;4.476;2022-12-07T03:55:18;3.76;;;2.20;;
69837;SDS011;57135;51.992;4.476;2022-12-07T03:57:54;4.02;;;2.36;;
69837;SDS011;57135;51.992;4.476;2022-12-07T04:00:24;3.61;;;2.15;;
69837;SDS011;57135;51.992;4.476;2022-12-07T04:02:53;3.37;;;2.00;;
69837;SDS011;57135;51.992;4.476;2022-12-07T04:05:18;3.20;;;1.90;;
69837;SDS011;57135;51.992;4.476;2022-12-07T04:07:44;3.12;;;1.85;;
69837;SDS011;57135;51.992;4.476;2022-12-07T04:10:10;3.83;;;2.25;;
69837;SDS011;57135;51.992;4.476;2022-12-07T04:12:36;3.56;;;2.11;;
69837;SDS011;57135;51.992;4.476;2022-12-07T04:15:02;3.19;;;1.90;;
69837;SDS011;57135;51.992;4.476;2022-12-07T04:17:28;3.50;;;2.11;;
69837;SDS011;57135;51.992;4.476;2022-12-07T04:19:53;2.80;;;1.70;;
69837;SDS011;57135;51.992;4.476;2022-12-07T04:22:18;3.56;;;2.16;;
69837;SDS011;57135;51.992;4.476;2022-12-07T04:24:44;3.02;;;1.83;;
69837;SDS011;57135;51.992;4.476;2022-12-07T04:27:09;3.23;;;1.97;;
69837;SDS011;57135;51.992;4.476;2022-12-07T04:29:35;3.22;;;1.99;;
69837;SDS011;57135;51.992;4.476;2022-12-07T04:32:00;3.86;;;2.41;;
69837;SDS011;57135;51.992;4.476;2022-12-07T04:34:26;4.00;;;2.48;;
69837;SDS011;57135;51.992;4.476;2022-12-07T04:36:51;3.91;;;2.41;;
69837;SDS011;57135;51.992;4.476;2022-12-07T04:39:18;3.37;;;2.10;;
69837;SDS011;57135;51.992;4.476;2022-12-07T04:41:46;3.93;;;2.44;;
69837;SDS011;57135;51.992;4.476;2022-12-07T04:44:11;3.28;;;2.04;;
69837;SDS011;57135;51.992;4.476;2022-12-07T04:46:39;3.85;;;2.41;;
69837;SDS011;57135;51.992;4.476;2022-12-07T04:49:06;3.81;;;2.41;;
69837;SDS011;57135;51.992;4.476;2022-12-07T04:51:31;3.21;;;2.07;;
69837;SDS011;57135;51.992;4.476;2022-12-07T04:53:57;3.15;;;2.05;;
69837;SDS011;57135;51.992;4.476;2022-12-07T04:56:23;2.84;;;1.83;;
69837;SDS011;57135;51.992;4.476;2022-12-07T04:58:50;2.76;;;1.77;;
69837;SDS011;57135;51.992;4.476;2022-12-07T05:01:16;3.09;;;1.95;;
69837;SDS011;57135;51.992;4.476;2022-12-07T05:03:43;3.04;;;1.93;;
69837;SDS011;57135;51.992;4.476;2022-12-07T05:06:09;2.68;;;1.70;;
69837;SDS011;57135;51.992;4.476;2022-12-07T05:08:36;2.88;;;1.82;;
69837;SDS011;57135;51.992;4.476;2022-12-07T05:11:02;3.60;;;2.30;;
69837;SDS011;57135;51.992;4.476;2022-12-07T05:13:28;2.97;;;1.94;;
69837;SDS011;57135;51.992;4.476;2022-12-07T05:15:54;3.28;;;2.18;;
69837;SDS011;57135;51.992;4.476;2022-12-07T05:18:19;3.55;;;2.40;;
69837;SDS011;57135;51.992;4.476;2022-12-07T05:20:45;3.30;;;2.22;;
69837;SDS011;57135;51.992;4.476;2022-12-07T05:23:11;3.95;;;2.60;;
69837;SDS011;57135;51.992;4.476;2022-12-07T05:25:36;3.84;;;2.53;;
69837;SDS011;57135;51.992;4.476;2022-12-07T05:28:02;3.20;;;2.14;;
69837;SDS011;57135;51.992;4.476;2022-12-07T05:30:28;3.12;;;2.13;;
69837;SDS011;57135;51.992;4.476;2022-12-07T05:32:54;3.27;;;2.25;;
69837;SDS011;57135;51.992;4.476;2022-12-07T05:35:19;3.16;;;2.15;;
69837;SDS011;57135;51.992;4.476;2022-12-07T05:37:45;3.22;;;2.18;;
69837;SDS011;57135;51.992;4.476;2022-12-07T05:40:11;3.39;;;2.30;;
69837;SDS011;57135;51.992;4.476;2022-12-07T05:42:37;3.64;;;2.54;;
69837;SDS011;57135;51.992;4.476;2022-12-07T05:45:03;3.11;;;2.24;;
69837;SDS011;57135;51.992;4.476;2022-12-07T05:47:29;2.99;;;2.16;;
69837;SDS011;57135;51.992;4.476;2022-12-07T05:49:55;2.93;;;2.08;;
69837;SDS011;57135;51.992;4.476;2022-12-07T05:52:20;3.49;;;2.51;;
69837;SDS011;57135;51.992;4.476;2022-12-07T05:54:46;3.68;;;2.70;;
69837;SDS011;57135;51.992;4.476;2022-12-07T05:57:11;3.25;;;2.46;;
69837;SDS011;57135;51.992;4.476;2022-12-07T05:59:37;3.00;;;2.29;;
69837;SDS011;57135;51.992;4.476;2022-12-07T06:02:04;2.68;;;2.09;;
69837;SDS011;57135;51.992;4.476;2022-12-07T06:04:41;2.72;;;2.21;;
69837;SDS011;57135;51.992;4.476;2022-12-07T06:07:09;2.46;;;2.06;;
69837;SDS011;57135;51.992;4.476;2022-12-07T06:09:36;3.35;;;2.86;;
69837;SDS011;57135;51.992;4.476;2022-12-07T06:12:02;3.53;;;3.06;;
69837;SDS011;57135;51.992;4.476;2022-12-07T06:14:47;4.03;;;3.59;;
69837;SDS011;57135;51.992;4.476;2022-12-07T06:17:13;3.89;;;3.52;;
69837;SDS011;57135;51.992;4.476;2022-12-07T06:19:38;3.86;;;3.46;;
69837;SDS011;57135;51.992;4.476;2022-12-07T06:22:04;3.81;;;3.50;;
69837;SDS011;57135;51.992;4.476;2022-12-07T06:24:30;3.65;;;3.38;;
69837;SDS011;57135;51.992;4.476;2022-12-07T06:26:57;3.86;;;3.59;;
69837;SDS011;57135;51.992;4.476;2022-12-07T06:29:23;3.65;;;3.31;;
69837;SDS011;57135;51.992;4.476;2022-12-07T06:31:48;4.09;;;3.60;;
69837;SDS011;57135;51.992;4.476;2022-12-07T06:34:15;4.48;;;4.01;;
69837;SDS011;57135;51.992;4.476;2022-12-07T06:36:42;4.44;;;3.87;;
69837;SDS011;57135;51.992;4.476;2022-12-07T06:39:08;5.50;;;4.82;;
69837;SDS011;57135;51.992;4.476;2022-12-07T06:41:37;5.21;;;4.69;;
69837;SDS011;57135;51.992;4.476;2022-12-07T06:44:04;4.48;;;3.97;;
69837;SDS011;57135;51.992;4.476;2022-12-07T06:46:30;4.55;;;3.94;;
69837;SDS011;57135;51.992;4.476;2022-12-07T06:48:55;5.08;;;4.38;;
69837;SDS011;57135;51.992;4.476;2022-12-07T06:51:21;7.36;;;6.64;;
69837;SDS011;57135;51.992;4.476;2022-12-07T06:53:47;6.67;;;6.16;;
69837;SDS011;57135;51.992;4.476;2022-12-07T06:56:12;5.90;;;5.44;;
69837;SDS011;57135;51.992;4.476;2022-12-07T06:58:38;5.97;;;5.61;;
69837;SDS011;57135;51.992;4.476;2022-12-07T07:01:11;6.57;;;6.11;;
69837;SDS011;57135;51.992;4.476;2022-12-07T07:03:40;6.53;;;6.08;;
69837;SDS011;57135;51.992;4.476;2022-12-07T07:06:06;5.85;;;5.47;;
69837;SDS011;57135;51.992;4.476;2022-12-07T07:08:33;5.41;;;5.16;;
69837;SDS011;57135;51.992;4.476;2022-12-07T07:10:59;5.16;;;4.95;;
69837;SDS011;57135;51.992;4.476;2022-12-07T07:13:24;5.04;;;4.69;;
69837;SDS011;57135;51.992;4.476;2022-12-07T07:15:50;5.30;;;4.78;;
69837;SDS011;57135;51.992;4.476;2022-12-07T07:18:15;5.23;;;4.74;;
69837;SDS011;57135;51.992;4.476;2022-12-07T07:20:41;5.17;;;4.57;;
69837;SDS011;57135;51.992;4.476;2022-12-07T07:23:06;4.99;;;4.38;;
69837;SDS011;57135;51.992;4.476;2022-12-07T07:25:32;4.45;;;4.04;;
69837;SDS011;57135;51.992;4.476;2022-12-07T07:27:58;4.51;;;4.11;;
69837;SDS011;57135;51.992;4.476;2022-12-07T07:30:23;4.29;;;4.01;;
69837;SDS011;57135;51.992;4.476;2022-12-07T07:32:49;4.07;;;3.78;;
69837;SDS011;57135;51.992;4.476;2022-12-07T07:35:15;4.60;;;4.23;;
69837;SDS011;57135;51.992;4.476;2022-12-07T07:37:40;4.30;;;4.03;;
69837;SDS011;57135;51.992;4.476;2022-12-07T07:40:06;4.57;;;4.21;;
69837;SDS011;57135;51.992;4.476;2022-12-07T07:42:32;4.69;;;4.17;;
69837;SDS011;57135;51.992;4.476;2022-12-07T07:44:58;4.57;;;4.06;;
69837;SDS011;57135;51.992;4.476;2022-12-07T07:47:23;4.22;;;3.82;;
69837;SDS011;57135;51.992;4.476;2022-12-07T07:49:49;3.58;;;3.08;;
69837;SDS011;57135;51.992;4.476;2022-12-07T07:52:14;3.19;;;2.55;;
69837;SDS011;57135;51.992;4.476;2022-12-07T07:54:40;2.89;;;2.25;;
69837;SDS011;57135;51.992;4.476;2022-12-07T07:57:05;2.62;;;1.97;;
69837;SDS011;57135;51.992;4.476;2022-12-07T07:59:31;3.13;;;2.26;;
69837;SDS011;57135;51.992;4.476;2022-12-07T08:01:56;2.74;;;1.92;;
69837;SDS011;57135;51.992;4.476;2022-12-07T08:04:22;3.54;;;2.39;;
69837;SDS011;57135;51.992;4.476;2022-12-07T08:06:47;3.05;;;2.06;;
69837;SDS011;57135;51.992;4.476;2022-12-07T08:09:12;3.77;;;2.47;;
69837;SDS011;57135;51.992;4.476;2022-12-07T08:11:38;3.83;;;2.51;;
69837;SDS011;57135;51.992;4.476;2022-12-07T08:14:03;3.86;;;2.59;;
69837;SDS011;57135;51.992;4.476;2022-12-07T08:16:29;4.14;;;2.77;;
69837;SDS011;57135;51.992;4.476;2022-12-07T08:18:54;3.80;;;2.51;;
69837;SDS011;57135;51.992;4.476;2022-12-07T08:21:20;3.84;;;2.60;;
69837;SDS011;57135;51.992;4.476;2022-12-07T08:23:45;5.13;;;3.55;;
69837;SDS011;57135;51.992;4.476;2022-12-07T08:26:13;5.74;;;4.18;;
69837;SDS011;57135;51.992;4.476;2022-12-07T08:28:40;5.63;;;4.38;;
69837;SDS011;57135;51.992;4.476;2022-12-07T08:31:07;4.75;;;3.90;;
69837;SDS011;57135;51.992;4.476;2022-12-07T08:33:36;5.48;;;4.61;;
69837;SDS011;57135;51.992;4.476;2022-12-07T08:36:06;7.49;;;6.68;;
69837;SDS011;57135;51.992;4.476;2022-12-07T08:38:34;4.25;;;3.88;;
69837;SDS011;57135;51.992;4.476;2022-12-07T08:41:01;4.84;;;4.24;;
69837;SDS011;57135;51.992;4.476;2022-12-07T08:43:27;5.34;;;4.69;;
69837;SDS011;57135;51.992;4.476;2022-12-07T08:46:36;4.01;;;3.56;;
69837;SDS011;57135;51.992;4.476;2022-12-07T08:48:57;3.76;;;3.08;;
69837;SDS011;57135;51.992;4.476;2022-12-07T08:51:28;4.77;;;3.83;;
69837;SDS011;57135;51.992;4.476;2022-12-07T08:53:54;4.42;;;3.73;;
69837;SDS011;57135;51.992;4.476;2022-12-07T08:56:21;4.36;;;3.72;;
69837;SDS011;57135;51.992;4.476;2022-12-07T08:58:47;3.87;;;3.20;;
69837;SDS011;57135;51.992;4.476;2022-12-07T09:01:13;4.00;;;3.41;;
69837;SDS011;57135;51.992;4.476;2022-12-07T09:03:39;4.26;;;3.76;;
69837;SDS011;57135;51.992;4.476;2022-12-07T09:06:05;4.71;;;4.20;;
69837;SDS011;57135;51.992;4.476;2022-12-07T09:08:32;6.18;;;5.55;;
69837;SDS011;57135;51.992;4.476;2022-12-07T09:11:05;8.08;;;7.40;;
69837;SDS011;57135;51.992;4.476;2022-12-07T09:13:32;7.10;;;6.66;;
69837;SDS011;57135;51.992;4.476;2022-12-07T09:15:58;7.32;;;6.79;;
69837;SDS011;57135;51.992;4.476;2022-12-07T09:18:23;7.69;;;7.11;;
69837;SDS011;57135;51.992;4.476;2022-12-07T09:20:50;8.25;;;7.79;;
69837;SDS011;57135;51.992;4.476;2022-12-07T09:23:15;10.79;;;10.38;;
69837;SDS011;57135;51.992;4.476;2022-12-07T09:25:41;11.83;;;11.54;;
69837;SDS011;57135;51.992;4.476;2022-12-07T09:28:06;11.75;;;11.49;;
69837;SDS011;57135;51.992;4.476;2022-12-07T09:30:32;12.74;;;12.46;;
69837;SDS011;57135;51.992;4.476;2022-12-07T09:32:57;14.29;;;13.99;;
69837;SDS011;57135;51.992;4.476;2022-12-07T09:35:23;14.67;;;14.53;;
69837;SDS011;57135;51.992;4.476;2022-12-07T09:37:49;13.89;;;13.74;;
69837;SDS011;57135;51.992;4.476;2022-12-07T09:40:15;15.32;;;15.05;;
69837;SDS011;57135;51.992;4.476;2022-12-07T09:42:51;14.05;;;13.75;;
69837;SDS011;57135;51.992;4.476;2022-12-07T09:45:19;13.79;;;13.65;;
69837;SDS011;57135;51.992;4.476;2022-12-07T09:47:48;13.63;;;13.47;;
69837;SDS011;57135;51.992;4.476;2022-12-07T09:50:19;13.88;;;13.71;;
69837;SDS011;57135;51.992;4.476;2022-12-07T09:52:48;13.58;;;13.33;;
69837;SDS011;57135;51.992;4.476;2022-12-07T09:55:27;11.39;;;11.18;;
69837;SDS011;57135;51.992;4.476;2022-12-07T09:57:54;8.91;;;8.69;;
69837;SDS011;57135;51.992;4.476;2022-12-07T10:00:22;8.29;;;8.11;;
69837;SDS011;57135;51.992;4.476;2022-12-07T10:05:28;11.58;;;11.31;;
69837;SDS011;57135;51.992;4.476;2022-12-07T10:08:17;8.05;;;7.78;;
69837;SDS011;57135;51.992;4.476;2022-12-07T10:10:43;7.54;;;7.30;;
69837;SDS011;57135;51.992;4.476;2022-12-07T10:13:11;7.47;;;7.28;;
69837;SDS011;57135;51.992;4.476;2022-12-07T10:15:46;7.59;;;7.45;;
69837;SDS011;57135;51.992;4.476;2022-12-07T10:21:00;7.24;;;7.02;;
69837;SDS011;57135;51.992;4.476;2022-12-07T10:23:26;7.98;;;7.82;;
69837;SDS011;57135;51.992;4.476;2022-12-07T10:25:51;7.08;;;6.89;;
69837;SDS011;57135;51.992;4.476;2022-12-07T10:28:20;6.56;;;6.15;;
69837;SDS011;57135;51.992;4.476;2022-12-07T10:30:47;6.62;;;6.29;;
69837;SDS011;57135;51.992;4.476;2022-12-07T10:33:29;6.93;;;6.52;;
69837;SDS011;57135;51.992;4.476;2022-12-07T10:35:55;6.43;;;6.06;;
69837;SDS011;57135;51.992;4.476;2022-12-07T10:38:21;5.47;;;5.26;;
69837;SDS011;57135;51.992;4.476;2022-12-07T10:40:46;4.64;;;4.35;;
69837;SDS011;57135;51.992;4.476;2022-12-07T10:48:28;5.16;;;4.83;;
69837;SDS011;57135;51.992;4.476;2022-12-07T10:53:54;5.43;;;4.65;;
69837;SDS011;57135;51.992;4.476;2022-12-07T10:59:03;4.53;;;3.95;;
69837;SDS011;57135;51.992;4.476;2022-12-07T11:01:57;3.40;;;3.00;;
69837;SDS011;57135;51.992;4.476;2022-12-07T11:10:55;4.10;;;3.79;;
69837;SDS011;57135;51.992;4.476;2022-12-07T11:21:57;10.77;;;10.14;;
69837;SDS011;57135;51.992;4.476;2022-12-07T11:24:27;1.97;;;1.95;;
69837;SDS011;57135;51.992;4.476;2022-12-07T11:27:18;4.55;;;4.18;;
69837;SDS011;57135;51.992;4.476;2022-12-07T11:29:55;3.89;;;3.86;;
69837;SDS011;57135;51.992;4.476;2022-12-07T11:35:30;4.11;;;4.11;;
69837;SDS011;57135;51.992;4.476;2022-12-07T11:38:26;3.46;;;3.46;;
69837;SDS011;57135;51.992;4.476;2022-12-07T11:40:55;1.21;;;1.21;;
69837;SDS011;57135;51.992;4.476;2022-12-07T11:43:37;0.86;;;0.85;;
69837;SDS011;57135;51.992;4.476;2022-12-07T11:46:14;1.42;;;1.26;;
69837;SDS011;57135;51.992;4.476;2022-12-07T11:48:53;1.55;;;1.27;;
69837;SDS011;57135;51.992;4.476;2022-12-07T11:51:28;1.65;;;1.24;;
69837;SDS011;57135;51.992;4.476;2022-12-07T11:53:59;1.93;;;1.40;;
69837;SDS011;57135;51.992;4.476;2022-12-07T11:56:30;2.29;;;1.61;;
69837;SDS011;57135;51.992;4.476;2022-12-07T11:59:04;2.84;;;1.92;;
69837;SDS011;57135;51.992;4.476;2022-12-07T12:01:44;3.09;;;2.09;;
69837;SDS011;57135;51.992;4.476;2022-12-07T12:07:15;4.53;;;3.27;;
69837;SDS011;57135;51.992;4.476;2022-12-07T12:09:49;4.16;;;3.30;;
69837;SDS011;57135;51.992;4.476;2022-12-07T12:12:34;3.46;;;2.96;;
69837;SDS011;57135;51.992;4.476;2022-12-07T12:15:35;10.67;;;9.93;;
69837;SDS011;57135;51.992;4.476;2022-12-07T12:18:16;7.90;;;7.64;;
69837;SDS011;57135;51.992;4.476;2022-12-07T12:21:10;3.81;;;3.67;;
69837;SDS011;57135;51.992;4.476;2022-12-07T12:23:41;2.32;;;2.09;;
69837;SDS011;57135;51.992;4.476;2022-12-07T12:26:15;2.27;;;1.93;;
69837;SDS011;57135;51.992;4.476;2022-12-07T12:33:50;4.19;;;3.77;;
69837;SDS011;57135;51.992;4.476;2022-12-07T12:44:38;1.57;;;1.44;;
69837;SDS011;57135;51.992;4.476;2022-12-07T12:46:58;1.53;;;1.31;;
69837;SDS011;57135;51.992;4.476;2022-12-07T12:49:30;1.71;;;1.40;;
69837;SDS011;57135;51.992;4.476;2022-12-07T12:54:35;2.65;;;1.99;;
69837;SDS011;57135;51.992;4.476;2022-12-07T13:00:21;3.32;;;2.47;;
69837;SDS011;57135;51.992;4.476;2022-12-07T13:02:36;3.45;;;2.60;;
69837;SDS011;57135;51.992;4.476;2022-12-07T13:15:38;2.17;;;1.67;;
69837;SDS011;57135;51.992;4.476;2022-12-07T13:18:22;2.02;;;1.57;;
69837;SDS011;57135;51.992;4.476;2022-12-07T13:36:52;1.27;;;1.04;;
69837;SDS011;57135;51.992;4.476;2022-12-07T13:39:18;1.41;;;1.14;;
69837;SDS011;57135;51.992;4.476;2022-12-07T13:42:30;2.04;;;1.64;;
69837;SDS011;57135;51.992;4.476;2022-12-07T13:45:00;1.54;;;1.22;;
69837;SDS011;57135;51.992;4.476;2022-12-07T13:47:48;1.46;;;1.13;;
69837;SDS011;57135;51.992;4.476;2022-12-07T13:50:22;1.67;;;1.28;;
69837;SDS011;57135;51.992;4.476;2022-12-07T13:52:49;1.76;;;1.32;;
69837;SDS011;57135;51.992;4.476;2022-12-07T13:55:16;2.09;;;1.52;;
69837;SDS011;57135;51.992;4.476;2022-12-07T13:57:42;2.00;;;1.42;;
69837;SDS011;57135;51.992;4.476;2022-12-07T14:00:15;1.98;;;1.38;;
69837;SDS011;57135;51.992;4.476;2022-12-07T14:05:25;2.30;;;1.58;;
69837;SDS011;57135;51.992;4.476;2022-12-07T14:12:53;3.44;;;2.56;;
69837;SDS011;57135;51.992;4.476;2022-12-07T14:15:24;5.26;;;4.15;;
69837;SDS011;57135;51.992;4.476;2022-12-07T14:17:53;2.05;;;1.67;;
69837;SDS011;57135;51.992;4.476;2022-12-07T14:22:54;1.81;;;1.45;;
69837;SDS011;57135;51.992;4.476;2022-12-07T14:25:21;2.72;;;2.09;;
69837;SDS011;57135;51.992;4.476;2022-12-07T14:27:49;3.84;;;3.15;;
69837;SDS011;57135;51.992;4.476;2022-12-07T14:30:21;2.39;;;1.98;;
69837;SDS011;57135;51.992;4.476;2022-12-07T14:32:49;2.22;;;1.82;;
69837;SDS011;57135;51.992;4.476;2022-12-07T14:35:22;2.60;;;2.17;;
69837;SDS011;57135;51.992;4.476;2022-12-07T14:37:48;2.67;;;2.24;;
69837;SDS011;57135;51.992;4.476;2022-12-07T14:40:16;2.94;;;2.45;;
69837;SDS011;57135;51.992;4.476;2022-12-07T14:42:44;2.94;;;2.45;;
69837;SDS011;57135;51.992;4.476;2022-12-07T14:45:13;3.02;;;2.54;;
69837;SDS011;57135;51.992;4.476;2022-12-07T14:47:41;2.59;;;2.13;;
69837;SDS011;57135;51.992;4.476;2022-12-07T14:50:07;2.74;;;2.21;;
69837;SDS011;57135;51.992;4.476;2022-12-07T14:52:34;2.89;;;2.34;;
69837;SDS011;57135;51.992;4.476;2022-12-07T14:55:00;3.23;;;2.70;;
69837;SDS011;57135;51.992;4.476;2022-12-07T14:57:25;2.98;;;2.57;;
69837;SDS011;57135;51.992;4.476;2022-12-07T14:59:51;3.36;;;2.90;;
69837;SDS011;57135;51.992;4.476;2022-12-07T15:02:17;2.98;;;2.51;;
69837;SDS011;57135;51.992;4.476;2022-12-07T15:04:42;2.92;;;2.35;;
69837;SDS011;57135;51.992;4.476;2022-12-07T15:07:29;2.75;;;2.23;;
69837;SDS011;57135;51.992;4.476;2022-12-07T15:09:53;3.89;;;3.11;;
69837;SDS011;57135;51.992;4.476;2022-12-07T15:12:20;3.42;;;2.72;;
69837;SDS011;57135;51.992;4.476;2022-12-07T15:14:45;3.62;;;2.82;;
69837;SDS011;57135;51.992;4.476;2022-12-07T15:17:11;3.60;;;2.83;;
69837;SDS011;57135;51.992;4.476;2022-12-07T15:19:39;4.59;;;3.65;;
69837;SDS011;57135;51.992;4.476;2022-12-07T15:22:05;4.42;;;3.44;;
69837;SDS011;57135;51.992;4.476;2022-12-07T15:24:30;4.19;;;3.19;;
69837;SDS011;57135;51.992;4.476;2022-12-07T15:26:56;4.93;;;3.66;;
69837;SDS011;57135;51.992;4.476;2022-12-07T15:29:21;5.27;;;3.85;;
69837;SDS011;57135;51.992;4.476;2022-12-07T15:31:48;6.50;;;4.81;;
69837;SDS011;57135;51.992;4.476;2022-12-07T15:34:14;5.35;;;4.17;;
69837;SDS011;57135;51.992;4.476;2022-12-07T15:36:40;4.89;;;4.21;;
69837;SDS011;57135;51.992;4.476;2022-12-07T15:39:05;4.17;;;3.74;;
69837;SDS011;57135;51.992;4.476;2022-12-07T15:41:31;3.72;;;3.36;;
69837;SDS011;57135;51.992;4.476;2022-12-07T15:43:56;3.18;;;2.92;;
69837;SDS011;57135;51.992;4.476;2022-12-07T15:46:40;3.28;;;2.95;;
69837;SDS011;57135;51.992;4.476;2022-12-07T15:49:12;3.98;;;3.66;;
69837;SDS011;57135;51.992;4.476;2022-12-07T15:51:42;2.96;;;2.72;;
69837;SDS011;57135;51.992;4.476;2022-12-07T15:54:22;2.74;;;2.50;;
69837;SDS011;57135;51.992;4.476;2022-12-07T15:56:52;3.20;;;2.76;;
69837;SDS011;57135;51.992;4.476;2022-12-07T15:59:18;3.41;;;2.90;;
69837;SDS011;57135;51.992;4.476;2022-12-07T16:01:43;4.54;;;3.97;;
69837;SDS011;57135;51.992;4.476;2022-12-07T16:04:09;4.11;;;3.62;;
69837;SDS011;57135;51.992;4.476;2022-12-07T16:06:35;6.66;;;5.75;;
69837;SDS011;57135;51.992;4.476;2022-12-07T16:09:00;18.07;;;14.09;;
69837;SDS011;57135;51.992;4.476;2022-12-07T16:11:26;5.22;;;4.16;;
69837;SDS011;57135;51.992;4.476;2022-12-07T16:13:52;3.39;;;3.09;;
69837;SDS011;57135;51.992;4.476;2022-12-07T16:16:18;2.15;;;1.96;;
69837;SDS011;57135;51.992;4.476;2022-12-07T16:18:44;2.59;;;2.33;;
69837;SDS011;57135;51.992;4.476;2022-12-07T16:21:11;2.27;;;2.01;;
69837;SDS011;57135;51.992;4.476;2022-12-07T16:23:36;1.92;;;1.63;;
69837;SDS011;57135;51.992;4.476;2022-12-07T16:26:16;2.99;;;2.42;;
69837;SDS011;57135;51.992;4.476;2022-12-07T16:28:43;2.92;;;2.39;;
69837;SDS011;57135;51.992;4.476;2022-12-07T16:31:10;3.09;;;2.55;;
69837;SDS011;57135;51.992;4.476;2022-12-07T16:33:38;3.87;;;3.32;;
69837;SDS011;57135;51.992;4.476;2022-12-07T16:36:05;3.52;;;3.04;;
69837;SDS011;57135;51.992;4.476;2022-12-07T16:38:31;2.66;;;2.28;;
69837;SDS011;57135;51.992;4.476;2022-12-07T16:40:58;2.43;;;2.04;;
69837;SDS011;57135;51.992;4.476;2022-12-07T16:43:23;4.57;;;3.72;;
69837;SDS011;57135;51.992;4.476;2022-12-07T16:45:49;3.63;;;2.90;;
69837;SDS011;57135;51.992;4.476;2022-12-07T16:48:15;3.25;;;2.68;;
69837;SDS011;57135;51.992;4.476;2022-12-07T16:50:41;3.28;;;2.74;;
69837;SDS011;57135;51.992;4.476;2022-12-07T16:53:11;2.90;;;2.43;;
69837;SDS011;57135;51.992;4.476;2022-12-07T16:55:43;2.56;;;2.10;;
69837;SDS011;57135;51.992;4.476;2022-12-07T16:58:13;2.98;;;2.41;;